| time (UTC) | temp F | wind direction | speed knots | gust knots | rain 1hr in | rain 24hr in | rain mn in | humidity % | barometer mb |
| 20260906234546 | 96 | 71 | 3.5 | 7.8 | 0.00 | 0.00 | 0.00 | 47 | 1014.1 |
| 20260906233050 | 96 | 82 | 4.3 | 10.4 | 0.00 | 0.00 | 0.00 | 48 | 1014.0 |
| 20260906231555 | 97 | 111 | 2.6 | 9.6 | 0.00 | 0.00 | 0.00 | 47 | 1014.1 |
| 20260906230055 | 97 | 71 | 6.1 | 14.8 | 0.00 | 0.00 | 0.00 | 47 | 1014.1 |
| 20260906224548 | 98 | 65 | 7.0 | 13.9 | 0.00 | 0.00 | 0.00 | 46 | 1014.0 |
| 20260906223057 | 98 | 130 | 6.1 | 11.3 | 0.00 | 0.00 | 0.00 | 46 | 1014.0 |
| 20260906221546 | 99 | 74 | 5.2 | 11.3 | 0.00 | 0.00 | 0.00 | 45 | 1014.0 |
| 20260906220051 | 99 | 96 | 4.3 | 8.7 | 0.00 | 0.00 | 0.00 | 44 | 1014.1 |
| 20260906214604 | 98 | 77 | 6.1 | 10.4 | 0.00 | 0.00 | 0.00 | 46 | 1014.3 |
| 20260906213049 | 99 | 44 | 7.0 | 13.0 | 0.00 | 0.00 | 0.00 | 44 | 1014.4 |
| 20260906211551 | 98 | 139 | 2.6 | 8.7 | 0.00 | 0.00 | 0.00 | 46 | 1014.5 |
| 20260906210111 | 99 | 344 | 5.2 | 12.2 | 0.00 | 0.00 | 0.00 | 44 | 1014.7 |
| 20260906204553 | 98 | 78 | 3.5 | 9.6 | 0.00 | 0.00 | 0.00 | 46 | 1014.8 |
| 20260906203055 | 97 | 169 | 2.6 | 11.3 | 0.00 | 0.00 | 0.00 | 46 | 1014.9 |
| 20260906201555 | 97 | 79 | 3.5 | 9.6 | 0.00 | 0.00 | 0.00 | 47 | 1015.1 |
| 20260906200044 | 96 | 130 | 2.6 | 11.3 | 0.00 | 0.00 | 0.00 | 48 | 1015.3 |
| 20260906194549 | 96 | 59 | 3.5 | 8.7 | 0.00 | 0.00 | 0.00 | 49 | 1015.4 |
| 20260906193050 | 97 | 86 | 6.1 | 10.4 | 0.00 | 0.00 | 0.00 | 49 | 1015.4 |
| 20260906191601 | 97 | 140 | 7.0 | 14.8 | 0.00 | 0.00 | 0.00 | 49 | 1015.7 |
| 20260906190054 | 97 | 42 | 4.3 | 13.0 | 0.00 | 0.00 | 0.00 | 49 | 1016.0 |
| 20260906184552 | 95 | 76 | 3.5 | 12.2 | 0.00 | 0.00 | 0.00 | 52 | 1016.2 |
| 20260906183048 | 96 | 47 | 4.3 | 12.2 | 0.00 | 0.00 | 0.00 | 51 | 1016.4 |
| 20260906181549 | 96 | 91 | 4.3 | 10.4 | 0.00 | 0.00 | 0.00 | 50 | 1016.7 |
| 20260906180112 | 96 | 111 | 3.5 | 9.6 | 0.00 | 0.00 | 0.00 | 51 | 1016.6 |
| 20260906174558 | 95 | 10 | 3.5 | 10.4 | 0.00 | 0.00 | 0.00 | 53 | 1016.9 |
| 20260906173046 | 95 | 38 | 4.3 | 9.6 | 0.00 | 0.00 | 0.00 | 54 | 1017.1 |
| 20260906171544 | 94 | 49 | 5.2 | 9.6 | 0.00 | 0.00 | 0.00 | 55 | 1017.4 |
| 20260906170053 | 93 | 69 | 5.2 | 10.4 | 0.00 | 0.00 | 0.00 | 59 | 1017.5 |
| 20260906164549 | 92 | 197 | 3.5 | 8.7 | 0.00 | 0.00 | 0.00 | 59 | 1017.6 |
| 20260906163055 | 92 | 106 | 3.5 | 8.7 | 0.00 | 0.00 | 0.00 | 61 | 1017.7 |
| 20260906161543 | 91 | 64 | 2.6 | 9.6 | 0.00 | 0.00 | 0.00 | 65 | 1017.7 |
| 20260906160053 | 89 | 52 | 1.7 | 7.8 | 0.00 | 0.00 | 0.00 | 68 | 1017.8 |
| 20260906154552 | 88 | 53 | 1.7 | 6.1 | 0.00 | 0.00 | 0.00 | 70 | 1017.6 |
| 20260906153110 | 87 | 121 | 1.7 | 6.1 | 0.00 | 0.00 | 0.00 | 72 | 1017.7 |
| 20260906151554 | 86 | 142 | 1.7 | 4.3 | 0.00 | 0.00 | 0.00 | 74 | 1017.6 |
| 20260906150050 | 85 | 146 | 2.6 | 7.0 | 0.00 | 0.00 | 0.00 | 76 | 1017.5 |
| 20260906144552 | 84 | 132 | 2.6 | 6.1 | 0.00 | 0.00 | 0.00 | 78 | 1017.7 |
| 20260906143049 | 83 | 142 | 3.5 | 7.0 | 0.00 | 0.00 | 0.00 | 79 | 1017.5 |
| 20260906141554 | 82 | 119 | 1.7 | 5.2 | 0.00 | 0.00 | 0.00 | 81 | 1017.5 |
| 20260906140048 | 81 | 81 | 1.7 | 5.2 | 0.00 | 0.00 | 0.00 | 83 | 1017.5 |
| 20260906134607 | 80 | 104 | 0.9 | 5.2 | 0.00 | 0.00 | 0.00 | 85 | 1017.5 |
| 20260906133054 | 79 | 100 | 1.7 | 5.2 | 0.00 | 0.00 | 0.00 | 86 | 1017.2 |
| 20260906131546 | 78 | 75 | 1.7 | 5.2 | 0.00 | 0.00 | 0.00 | 88 | 1017.3 |
| 20260906130048 | 77 | 103 | 0.0 | 2.6 | 0.00 | 0.00 | 0.00 | 88 | 1017.1 |
| 20260906124553 | 76 | 0 | 0.0 | 0.0 | 0.00 | 0.00 | 0.00 | 88 | 1017.0 |
| 20260906123056 | 75 | 0 | 0.0 | 1.7 | 0.00 | 0.00 | 0.00 | 88 | 1016.8 |
| 20260906121546 | 75 | 79 | 0.0 | 2.6 | 0.00 | 0.00 | 0.00 | 87 | 1016.8 |
| 20260906120052 | 75 | 0 | 0.0 | 0.0 | 0.00 | 0.00 | 0.00 | 87 | 1016.7 |
| 20260906114552 | 75 | 0 | 0.0 | 0.0 | 0.00 | 0.00 | 0.00 | 86 | 1016.6 |
| 20260906113049 | 75 | 0 | 0.0 | 0.0 | 0.00 | 0.00 | 0.00 | 86 | 1016.8 |
| 20260906111550 | 76 | 0 | 0.0 | 0.0 | 0.00 | 0.00 | 0.00 | 85 | 1016.4 |
| 20260906110053 | 76 | 0 | 0.0 | 0.0 | 0.00 | 0.00 | 0.00 | 85 | 1016.3 |
| 20260906104553 | 76 | 0 | 0.0 | 0.0 | 0.00 | 0.00 | 0.00 | 85 | 1016.3 |
| 20260906103101 | 76 | 0 | 0.0 | 0.0 | 0.00 | 0.00 | 0.00 | 85 | 1016.3 |
| 20260906101545 | 77 | 86 | 0.0 | 2.6 | 0.00 | 0.00 | 0.00 | 85 | 1016.0 |
| 20260906100100 | 77 | 0 | 0.0 | 1.7 | 0.00 | 0.00 | 0.00 | 84 | 1015.8 |
| 20260906094552 | 77 | 0 | 0.9 | 2.6 | 0.00 | 0.00 | 0.00 | 83 | 1015.8 |
| 20260906093052 | 77 | 90 | 0.0 | 2.6 | 0.00 | 0.00 | 0.00 | 83 | 1015.5 |
| 20260906091545 | 78 | 0 | 0.0 | 2.6 | 0.00 | 0.00 | 0.00 | 83 | 1015.4 |
| 20260906090111 | 78 | 0 | 0.0 | 2.6 | 0.00 | 0.00 | 0.00 | 83 | 1015.6 |
| 20260906084549 | 78 | 0 | 0.0 | 0.0 | 0.00 | 0.00 | 0.00 | 82 | 1015.5 |
| 20260906083051 | 78 | 0 | 0.0 | 3.5 | 0.00 | 0.00 | 0.00 | 82 | 1015.5 |
| 20260906081553 | 78 | 74 | 0.9 | 2.6 | 0.00 | 0.00 | 0.00 | 81 | 1015.8 |
| 20260906080046 | 79 | 0 | 0.0 | 0.0 | 0.00 | 0.00 | 0.00 | 80 | 1015.7 |
| 20260906074605 | 79 | 0 | 0.0 | 0.0 | 0.00 | 0.00 | 0.00 | 79 | 1015.6 |
| 20260906073105 | 79 | 169 | 0.9 | 3.5 | 0.00 | 0.00 | 0.00 | 80 | 1015.6 |
| 20260906071548 | 80 | 146 | 1.7 | 5.2 | 0.00 | 0.00 | 0.00 | 79 | 1016.0 |
| 20260906070045 | 80 | 149 | 2.6 | 6.1 | 0.00 | 0.00 | 0.00 | 78 | 1016.0 |
| 20260906064551 | 81 | 146 | 3.5 | 7.0 | 0.00 | 0.00 | 0.00 | 78 | 1016.2 |
| 20260906063051 | 81 | 102 | 3.5 | 7.8 | 0.00 | 0.00 | 0.00 | 77 | 1016.3 |
| 20260906061550 | 81 | 138 | 4.3 | 7.8 | 0.00 | 0.00 | 0.00 | 77 | 1016.4 |
| 20260906060044 | 81 | 132 | 2.6 | 5.2 | 0.00 | 0.00 | 0.00 | 77 | 1016.4 |
| 20260906054550 | 82 | 119 | 0.9 | 4.3 | 0.00 | 0.00 | 0.00 | 77 | 1016.4 |
| 20260906053049 | 82 | 107 | 1.7 | 5.2 | 0.00 | 0.00 | 0.00 | 77 | 1016.2 |
| 20260906051558 | 82 | 0 | 0.0 | 2.6 | 0.00 | 0.00 | 0.00 | 76 | 1016.1 |
| 20260906050107 | 82 | 164 | 0.9 | 2.6 | 0.00 | 0.00 | 0.00 | 76 | 1016.1 |
| 20260906044553 | 83 | 90 | 0.0 | 2.6 | 0.00 | 0.00 | 0.00 | 76 | 1016.2 |
| 20260906043053 | 83 | 0 | 0.0 | 4.3 | 0.00 | 0.00 | 0.00 | 75 | 1016.1 |
| 20260906041547 | 84 | 100 | 0.9 | 3.5 | 0.00 | 0.00 | 0.00 | 74 | 1016.1 |
| 20260906040054 | 84 | 111 | 0.0 | 2.6 | 0.00 | 0.00 | 0.00 | 73 | 1015.9 |
| 20260906034608 | 84 | 160 | 1.7 | 5.2 | 0.00 | 0.00 | 0.00 | 73 | 1015.9 |
| 20260906033048 | 85 | 0 | 0.9 | 3.5 | 0.00 | 0.00 | 0.00 | 73 | 1016.1 |
| 20260906031547 | 85 | 131 | 0.9 | 3.5 | 0.00 | 0.00 | 0.00 | 73 | 1016.1 |
| 20260906030052 | 85 | 104 | 1.7 | 7.0 | 0.00 | 0.00 | 0.00 | 72 | 1016.1 |
| 20260906024549 | 85 | 107 | 1.7 | 5.2 | 0.00 | 0.00 | 0.00 | 72 | 1016.1 |
| 20260906023047 | 86 | 90 | 1.7 | 7.0 | 0.00 | 0.00 | 0.00 | 71 | 1015.7 |
| 20260906021543 | 86 | 77 | 1.7 | 6.1 | 0.00 | 0.00 | 0.00 | 70 | 1015.5 |
| 20260906020105 | 87 | 92 | 3.5 | 7.8 | 0.00 | 0.00 | 0.00 | 69 | 1015.3 |
| 20260906014549 | 87 | 119 | 2.6 | 8.7 | 0.00 | 0.00 | 0.00 | 68 | 1015.1 |
| 20260906013102 | 87 | 76 | 3.5 | 8.7 | 0.00 | 0.00 | 0.00 | 67 | 1014.9 |
| 20260906011549 | 88 | 132 | 2.6 | 11.3 | 0.00 | 0.00 | 0.00 | 66 | 1014.7 |
| 20260906010052 | 89 | 119 | 5.2 | 11.3 | 0.00 | 0.00 | 0.00 | 64 | 1014.8 |
| 20260906004545 | 90 | 90 | 6.1 | 11.3 | 0.00 | 0.00 | 0.00 | 60 | 1014.7 |
| 20260906003048 | 94 | 137 | 5.2 | 13.9 | 0.00 | 0.00 | 0.00 | 54 | 1014.7 |
| 20260906001548 | 95 | 70 | 1.7 | 7.8 | 0.00 | 0.00 | 0.00 | 48 | 1014.3 |
| 20260906000055 | 96 | 101 | 1.7 | 7.8 | 0.00 | 0.00 | 0.00 | 47 | 1014.2 |
| 20260905234608 | 96 | 94 | 2.6 | 10.4 | 0.00 | 0.00 | 0.00 | 47 | 1014.1 |